Time;durP1;ratioP1;P1;durP2;ratioP2;P2;SDS_P1;SDS_P2;PMS_P1;PMS_P2;Temp;Humidity;BMP_temperature;BMP_pressure;BME280_temperature;BME280_humidity;BME280_pressure;Samples;Min_cycle;Max_cycle;Signal;HPM_P1;HPM_P2
2022/06/18 00:00:55;;;;;;;3.22;2.40;;;22.60;73.80;;;;;;5095765;28;20028;-56
2022/06/18 00:03:22;;;;;;;3.65;2.30;;;22.60;73.30;;;;;;5095523;28;20407;-58
2022/06/18 00:05:51;;;;;;;6.43;2.92;;;22.60;73.30;;;;;;5095102;28;20024;-60
2022/06/18 00:08:24;;;;;;;4.70;2.50;;;22.60;73.50;;;;;;5095286;28;20028;-57
2022/06/18 00:13:39;;;;;;;4.47;2.42;;;22.50;73.90;;;;;;5095224;28;20028;-57
2022/06/18 00:13:43;;;;;;;4.32;2.50;;;22.50;74.10;;;;;;5094668;28;20032;-58
2022/06/18 00:16:17;;;;;;;5.60;2.58;;;22.40;74.20;;;;;;5095511;28;20020;-58
2022/06/18 00:18:43;;;;;;;2.75;2.20;;;22.40;74.30;;;;;;5094911;28;20063;-59
2022/06/18 00:21:12;;;;;;;5.30;2.63;;;22.40;74.20;;;;;;5095092;28;20128;-58
2022/06/18 00:23:39;;;;;;;3.95;2.50;;;22.40;74.20;;;;;;5096210;28;20036;-60
2022/06/18 00:26:04;;;;;;;3.15;2.00;;;22.40;74.30;;;;;;5095941;28;20028;-57
2022/06/18 00:28:31;;;;;;;4.88;2.20;;;22.40;74.60;;;;;;5095806;28;20388;-60
2022/06/18 00:30:57;;;;;;;4.88;2.40;;;22.40;74.90;;;;;;5095915;28;20122;-59
2022/06/18 00:33:23;;;;;;;;;;;22.40;75.10;;;;;;5095567;28;20031;-60
2022/06/18 00:35:52;;;;;;;5.00;2.15;;;22.30;75.80;;;;;;5094332;28;20385;-58
2022/06/18 00:38:27;;;;;;;3.60;1.95;;;22.30;76.20;;;;;;5094898;28;20020;-58
2022/06/18 00:40:54;;;;;;;3.53;2.40;;;22.30;76.40;;;;;;5094981;28;20028;-60
2022/06/18 00:43:22;;;;;;;3.35;1.73;;;22.20;76.60;;;;;;5094896;28;20413;-58
2022/06/18 00:45:51;;;;;;;3.50;1.88;;;22.20;76.70;;;;;;5094306;28;20437;-60
2022/06/18 00:48:39;;;;;;;5.65;2.00;;;22.10;77.00;;;;;;5094069;28;20031;-61
2022/06/18 00:51:18;;;;;;;4.22;2.08;;;22.10;77.70;;;;;;5094644;28;20024;-60
2022/06/18 00:53:49;;;;;;;5.00;2.13;;;21.90;78.40;;;;;;5094275;28;20024;-60
2022/06/18 00:56:24;;;;;;;3.38;1.92;;;21.80;79.00;;;;;;5094441;28;20028;-60
2022/06/18 00:58:57;;;;;;;6.75;2.75;;;21.80;79.80;;;;;;5094565;28;20020;-58
2022/06/18 01:01:29;;;;;;;4.47;2.60;;;21.80;79.00;;;;;;5094316;28;20020;-61
2022/06/18 01:03:55;;;;;;;3.08;1.90;;;21.60;78.90;;;;;;5094041;28;20031;-59
2022/06/18 01:06:38;;;;;;;2.10;1.70;;;21.60;79.40;;;;;;5094092;28;20028;-59
2022/06/18 01:09:12;;;;;;;2.75;2.00;;;21.50;80.00;;;;;;5095417;28;20027;-60
2022/06/18 01:11:40;;;;;;;6.07;2.33;;;21.50;80.10;;;;;;5094328;28;20031;-58
2022/06/18 01:14:09;;;;;;;2.17;1.80;;;21.60;80.00;;;;;;5092519;28;20103;-58
2022/06/18 01:16:36;;;;;;;4.38;1.92;;;21.60;80.00;;;;;;5091818;28;20115;-61
2022/06/18 01:19:03;;;;;;;4.10;2.03;;;21.70;80.00;;;;;;5091449;28;20024;-59
2022/06/18 01:21:35;;;;;;;4.05;1.90;;;21.70;80.20;;;;;;5092729;28;20496;-61
2022/06/18 01:24:13;;;;;;;3.88;2.20;;;21.60;80.10;;;;;;5074299;28;20114;-61
2022/06/18 01:26:40;;;;;;;4.07;1.98;;;21.40;81.00;;;;;;5092290;28;20016;-62
2022/06/18 01:29:06;;;;;;;2.67;2.08;;;21.30;81.90;;;;;;5093094;28;20024;-59
2022/06/18 01:31:32;;;;;;;4.40;1.77;;;21.20;82.30;;;;;;5094505;28;20106;-61
2022/06/18 01:33:58;;;;;;;3.70;2.22;;;21.20;81.80;;;;;;5094612;28;20042;-61
2022/06/18 01:36:27;;;;;;;3.10;1.95;;;21.20;81.50;;;;;;5094508;28;20020;-63
2022/06/18 01:38:53;;;;;;;6.35;2.38;;;21.10;81.70;;;;;;5093890;28;20028;-61
2022/06/18 01:41:50;;;;;;;3.33;2.20;;;21.10;81.90;;;;;;5076021;28;20024;-61
2022/06/18 01:44:39;;;;;;;3.67;2.00;;;21.20;81.60;;;;;;5077637;28;20036;-61
2022/06/18 01:47:40;;;;;;;2.20;1.88;;;21.00;81.70;;;;;;5095118;28;20085;-62
2022/06/18 01:50:18;;;;;;;3.22;2.17;;;20.80;82.70;;;;;;5033981;28;20033;-62
2022/06/18 01:52:51;;;;;;;3.65;2.08;;;20.80;83.20;;;;;;5032512;28;20382;-62
2022/06/18 01:55:22;;;;;;;2.90;1.90;;;20.70;83.60;;;;;;5032302;28;20037;-63
2022/06/18 01:57:53;;;;;;;2.75;1.88;;;20.60;84.20;;;;;;5031463;28;20034;-62
2022/06/18 02:00:22;;;;;;;4.35;1.98;;;20.60;84.40;;;;;;5030989;28;20044;-62
2022/06/18 02:02:48;;;;;;;3.92;1.90;;;20.60;84.80;;;;;;5030649;28;20540;-62
2022/06/18 02:05:15;;;;;;;2.50;1.70;;;20.60;85.30;;;;;;5031505;28;20033;-62
2022/06/18 02:07:43;;;;;;;4.55;1.90;;;20.50;85.60;;;;;;5030780;28;20383;-62
2022/06/18 02:10:16;;;;;;;3.67;2.10;;;20.50;85.90;;;;;;5030673;28;20061;-62
2022/06/18 02:12:42;;;;;;;2.75;1.80;;;20.50;86.00;;;;;;5030911;28;20580;-62
2022/06/18 02:15:13;;;;;;;;;;;20.40;86.50;;;;;;5031274;28;20037;-62
2022/06/18 02:17:40;;;;;;;2.22;2.03;;;20.40;86.70;;;;;;5030848;28;20000;-62
2022/06/18 02:20:12;;;;;;;2.50;1.90;;;20.40;86.90;;;;;;5034262;28;20041;-63
2022/06/18 02:22:44;;;;;;;4.45;1.67;;;20.40;87.20;;;;;;5034471;28;20037;-62
2022/06/18 02:25:12;;;;;;;2.67;1.83;;;20.40;87.40;;;;;;5034468;28;20163;-61
2022/06/18 02:27:39;;;;;;;8.23;1.98;;;20.40;87.40;;;;;;5095473;28;20445;-62
2022/06/18 02:30:12;;;;;;;4.68;2.15;;;20.40;87.50;;;;;;5096891;28;20012;-62
2022/06/18 02:32:59;;;;;;;3.03;1.80;;;20.40;87.60;;;;;;5096559;28;20114;-63
2022/06/18 02:35:32;;;;;;;2.57;1.83;;;20.40;88.00;;;;;;5097094;28;20377;-62
2022/06/18 02:37:58;;;;;;;2.97;2.25;;;20.40;88.10;;;;;;5097201;28;20020;-61
2022/06/18 02:40:28;;;;;;;3.63;1.75;;;20.40;88.30;;;;;;5096558;28;20501;-61
2022/06/18 02:42:58;;;;;;;3.40;1.80;;;20.50;87.80;;;;;;5096289;28;20028;-60
2022/06/18 02:45:26;;;;;;;3.08;1.75;;;20.50;87.80;;;;;;5094757;28;20449;-62
2022/06/18 02:47:55;;;;;;;4.13;1.90;;;20.50;86.90;;;;;;5095178;28;20024;-62
2022/06/18 02:50:25;;;;;;;2.30;1.85;;;20.50;86.60;;;;;;5096310;28;20041;-61
2022/06/18 02:52:54;;;;;;;2.63;1.40;;;20.40;86.40;;;;;;5096090;28;20476;-62
2022/06/18 02:55:38;;;;;;;3.10;1.85;;;20.40;86.00;;;;;;5095808;28;20023;-63
2022/06/18 02:58:17;;;;;;;3.72;1.80;;;20.40;86.20;;;;;;5078326;28;20028;-62
2022/06/18 03:00:47;;;;;;;5.50;1.70;;;20.40;86.40;;;;;;5096675;28;20012;-62
2022/06/18 03:03:15;;;;;;;1.88;1.67;;;20.30;86.30;;;;;;5096821;28;20352;-62
2022/06/18 03:05:41;;;;;;;3.13;1.70;;;20.30;86.30;;;;;;5095767;28;20039;-62
2022/06/18 03:08:08;;;;;;;2.92;1.73;;;20.30;86.60;;;;;;5096406;28;20016;-62
2022/06/18 03:13:19;;;;;;;2.78;1.42;;;20.40;86.70;;;;;;5096302;28;20417;-62
2022/06/18 03:15:46;;;;;;;2.15;1.70;;;20.40;87.40;;;;;;5096057;28;20043;-62
2022/06/18 03:18:13;;;;;;;3.50;1.77;;;20.50;87.30;;;;;;5095950;28;20020;-62
2022/06/18 03:20:52;;;;;;;3.53;1.98;;;20.50;87.10;;;;;;5077496;28;20031;-61
2022/06/18 03:23:19;;;;;;;4.03;1.80;;;20.40;87.50;;;;;;5096579;28;20028;-61
2022/06/18 03:25:46;;;;;;;2.55;1.92;;;20.20;88.10;;;;;;5095717;28;20046;-62
2022/06/18 03:28:13;;;;;;;5.47;1.67;;;20.20;88.90;;;;;;5095841;28;20035;-62
2022/06/18 03:30:41;;;;;;;2.45;1.90;;;20.20;89.80;;;;;;5095340;28;20016;-61
2022/06/18 03:33:07;;;;;;;2.40;1.70;;;20.10;89.40;;;;;;5095894;28;20458;-60
2022/06/18 03:35:33;;;;;;;1.80;1.50;;;20.10;90.00;;;;;;5095326;28;20020;-61
2022/06/18 03:37:59;;;;;;;4.60;2.35;;;20.00;90.30;;;;;;5095620;28;20077;-61
2022/06/18 03:40:25;;;;;;;3.53;1.90;;;20.10;90.50;;;;;;5095647;28;20058;-60
2022/06/18 03:42:52;;;;;;;3.25;1.50;;;20.20;90.40;;;;;;5095789;28;20551;-60
2022/06/18 03:45:18;;;;;;;2.97;1.70;;;20.30;90.40;;;;;;5094161;28;20042;-61
2022/06/18 03:47:44;;;;;;;2.72;1.63;;;20.10;90.40;;;;;;5094853;28;20024;-60
2022/06/18 03:50:16;;;;;;;2.88;1.63;;;20.00;91.00;;;;;;5095579;28;20099;-63
2022/06/18 03:52:42;;;;;;;2.13;1.65;;;20.00;91.70;;;;;;5095260;28;20103;-62
2022/06/18 03:55:09;;;;;;;4.72;2.03;;;20.10;91.10;;;;;;5094321;28;20471;-62
2022/06/18 03:57:35;;;;;;;1.95;1.65;;;20.00;91.20;;;;;;5095096;28;20024;-62
2022/06/18 04:00:00;;;;;;;1.75;1.45;;;19.90;91.30;;;;;;5095031;28;20040;-60
2022/06/18 04:02:26;;;;;;;3.40;1.70;;;19.90;91.10;;;;;;5095653;28;20357;-62
2022/06/18 04:04:52;;;;;;;1.92;1.50;;;19.90;91.00;;;;;;5095162;28;20028;-61
2022/06/18 04:07:22;;;;;;;2.63;1.58;;;20.00;90.80;;;;;;5094928;28;20032;-61
2022/06/18 04:09:50;;;;;;;1.88;1.50;;;19.90;90.80;;;;;;5095513;28;20031;-61
2022/06/18 04:12:17;;;;;;;2.80;1.60;;;19.90;90.90;;;;;;5095300;28;20022;-62
2022/06/18 04:14:43;;;;;;;2.15;1.60;;;19.90;90.90;;;;;;5097197;28;20030;-62
2022/06/18 04:17:15;;;;;;;3.08;1.67;;;19.90;90.90;;;;;;5100296;28;20052;-62
2022/06/18 04:19:41;;;;;;;4.22;1.80;;;19.90;90.90;;;;;;5079276;28;20024;-62
2022/06/18 04:22:07;;;;;;;;;;;20.00;90.90;;;;;;5097073;28;20035;-62
2022/06/18 04:24:32;;;;;;;2.63;1.55;;;20.00;90.80;;;;;;5097260;28;19904;-62
2022/06/18 04:26:58;;;;;;;1.88;1.60;;;20.00;90.70;;;;;;5096846;28;20024;-63
2022/06/18 04:29:24;;;;;;;4.30;1.60;;;20.00;90.70;;;;;;5096605;28;20024;-62
2022/06/18 04:31:50;;;;;;;3.75;1.70;;;20.10;90.80;;;;;;5095998;28;20036;-60
2022/06/18 04:34:15;;;;;;;2.75;1.85;;;20.10;90.80;;;;;;5094754;28;20083;-63
2022/06/18 04:36:42;;;;;;;2.13;1.80;;;20.20;90.80;;;;;;5094423;28;20071;-63
2022/06/18 04:39:09;;;;;;;4.60;1.90;;;20.20;90.70;;;;;;5094305;28;20029;-63
2022/06/18 04:41:34;;;;;;;2.40;1.90;;;20.20;90.60;;;;;;5094240;28;20028;-63
2022/06/18 04:44:00;;;;;;;2.08;1.50;;;20.30;90.50;;;;;;5075309;28;20020;-63
2022/06/18 04:46:26;;;;;;;2.33;1.48;;;20.40;90.70;;;;;;5094456;28;20074;-62
2022/06/18 04:48:52;;;;;;;2.78;1.70;;;20.40;90.40;;;;;;5094145;28;20388;-63
2022/06/18 04:51:17;;;;;;;2.95;2.15;;;20.50;90.40;;;;;;5094689;28;20365;-63
2022/06/18 04:53:43;;;;;;;4.07;2.00;;;20.50;90.50;;;;;;5094062;28;20388;-63
2022/06/18 04:56:09;;;;;;;2.20;1.85;;;20.70;90.30;;;;;;5094073;28;20042;-62
2022/06/18 04:58:35;;;;;;;2.88;1.95;;;20.70;90.00;;;;;;5094636;28;20024;-62
2022/06/18 05:01:01;;;;;;;2.83;1.95;;;20.80;90.00;;;;;;5094607;28;20115;-62
2022/06/18 05:03:27;;;;;;;2.25;2.03;;;20.80;89.80;;;;;;5094739;28;20121;-62
2022/06/18 05:05:52;;;;;;;;;;;20.80;89.60;;;;;;5094747;28;20024;-61
2022/06/18 05:08:18;;;;;;;2.45;1.63;;;20.80;89.60;;;;;;5094386;28;19949;-62
2022/06/18 05:10:44;;;;;;;2.85;1.90;;;20.80;89.30;;;;;;5093638;28;20024;-61
2022/06/18 05:13:11;;;;;;;;;;;20.90;89.80;;;;;;5094345;28;20020;-62
2022/06/18 05:15:37;;;;;;;2.22;2.03;;;21.10;89.00;;;;;;5075771;28;20340;-61
2022/06/18 05:18:03;;;;;;;2.65;1.83;;;21.30;88.30;;;;;;5074994;28;20055;-61
2022/06/18 05:20:28;;;;;;;;;;;21.40;87.70;;;;;;5093930;28;20477;-62
2022/06/18 05:22:54;;;;;;;3.28;2.17;;;21.40;87.50;;;;;;5093448;28;19915;-62
2022/06/18 05:25:19;;;;;;;2.67;1.90;;;21.40;87.40;;;;;;5075640;28;20430;-62
2022/06/18 05:27:46;;;;;;;3.00;2.20;;;21.40;87.70;;;;;;5094460;28;20111;-62
2022/06/18 05:30:25;;;;;;;3.10;1.83;;;21.40;87.90;;;;;;5094367;28;20022;-62
2022/06/18 05:32:52;;;;;;;2.38;1.85;;;21.40;88.30;;;;;;5093788;28;20078;-61
2022/06/18 05:35:17;;;;;;;2.78;1.95;;;21.40;88.60;;;;;;5093432;28;20047;-61
2022/06/18 05:37:44;;;;;;;2.58;2.10;;;21.40;88.80;;;;;;5093313;28;20447;-61
2022/06/18 05:40:11;;;;;;;;;;;21.50;88.80;;;;;;5093766;28;20028;-61
2022/06/18 05:42:37;;;;;;;4.13;2.25;;;21.50;88.50;;;;;;5092948;28;19908;-61
2022/06/18 05:45:04;;;;;;;3.00;1.90;;;21.50;88.60;;;;;;5093008;28;20069;-61
2022/06/18 05:47:31;;;;;;;5.78;1.90;;;21.50;88.30;;;;;;5092943;28;20114;-61
2022/06/18 05:49:57;;;;;;;2.25;1.80;;;21.60;88.10;;;;;;5092956;28;20048;-63
2022/06/18 05:52:24;;;;;;;;;;;21.60;87.90;;;;;;5093342;28;20020;-61
2022/06/18 05:54:53;;;;;;;2.23;1.70;;;21.70;87.40;;;;;;5092891;28;19904;-61
2022/06/18 05:57:20;;;;;;;38.70;3.53;;;22.00;87.50;;;;;;5092824;28;20101;-60
2022/06/18 05:59:46;;;;;;;4.63;1.95;;;21.90;86.60;;;;;;5092890;28;20032;-62
2022/06/18 06:02:14;;;;;;;3.40;1.50;;;21.90;87.50;;;;;;5092984;28;20035;-61
2022/06/18 06:04:42;;;;;;;4.50;1.65;;;22.00;87.20;;;;;;5092239;28;20032;-62
2022/06/18 06:07:12;;;;;;;3.95;1.80;;;22.20;87.10;;;;;;5092649;28;20121;-61
2022/06/18 06:12:22;;;;;;;2.45;1.90;;;22.20;86.90;;;;;;5093145;28;20107;-61
2022/06/18 06:14:47;;;;;;;3.05;1.80;;;22.30;87.20;;;;;;5093087;28;20093;-62
2022/06/18 06:17:14;;;;;;;;;;;22.40;87.10;;;;;;5093384;28;20093;-60
2022/06/18 06:19:41;;;;;;;4.55;1.98;;;22.40;87.10;;;;;;5093168;28;19946;-61
2022/06/18 06:22:06;;;;;;;2.95;1.92;;;22.50;86.80;;;;;;5091866;28;20107;-62
2022/06/18 06:24:32;;;;;;;2.50;1.98;;;22.80;86.30;;;;;;5091703;28;20358;-62
2022/06/18 06:26:57;;;;;;;3.50;2.10;;;22.70;86.30;;;;;;5091681;28;20035;-62
2022/06/18 06:29:23;;;;;;;2.50;1.80;;;22.80;86.20;;;;;;5091739;28;20095;-63
2022/06/18 06:31:48;;;;;;;3.65;2.20;;;22.90;85.60;;;;;;5091686;28;20460;-61
2022/06/18 06:34:14;;;;;;;;;;;22.90;85.50;;;;;;5092148;28;20024;-63
2022/06/18 06:36:39;;;;;;;5.28;2.28;;;23.00;85.60;;;;;;5092391;28;19949;-63
2022/06/18 06:39:05;;;;;;;3.60;2.10;;;23.10;85.40;;;;;;5074517;28;20027;-62
2022/06/18 06:41:31;;;;;;;;;;;23.30;84.50;;;;;;5093143;28;20038;-61
2022/06/18 06:43:57;;;;;;;3.45;2.00;;;23.40;84.50;;;;;;5092575;28;19910;-63
2022/06/18 06:46:23;;;;;;;3.15;2.00;;;23.40;83.80;;;;;;5092615;28;20024;-62
2022/06/18 06:48:48;;;;;;;;;;;23.50;83.80;;;;;;5093074;28;20032;-61
2022/06/18 06:51:17;;;;;;;5.35;2.10;;;23.60;83.70;;;;;;5092813;28;19905;-63
2022/06/18 06:53:43;;;;;;;3.00;2.15;;;23.70;83.20;;;;;;5092772;28;20088;-59
2022/06/18 06:58:58;;;;;;;3.42;2.10;;;24.00;82.30;;;;;;5039695;28;19904;-61
2022/06/18 07:01:24;;;;;;;;;;;24.00;81.00;;;;;;5092197;28;20028;-63
2022/06/18 07:03:49;;;;;;;3.60;2.35;;;24.00;81.60;;;;;;5091651;28;19904;-62
2022/06/18 07:06:16;;;;;;;;;;;24.10;81.60;;;;;;5093721;28;20032;-62
2022/06/18 07:08:43;;;;;;;3.53;2.00;;;24.20;81.60;;;;;;5095585;28;19904;-62
2022/06/18 07:11:09;;;;;;;6.22;2.75;;;24.30;81.50;;;;;;5095294;28;20020;-63
2022/06/18 07:13:35;;;;;;;2.33;1.90;;;24.40;81.00;;;;;;5095642;28;20031;-63
2022/06/18 07:16:01;;;;;;;;;;;24.60;80.70;;;;;;5096318;28;20036;-61
2022/06/18 07:18:31;;;;;;;6.75;2.55;;;24.90;81.00;;;;;;5096029;28;19904;-64
2022/06/18 07:20:58;;;;;;;2.92;2.30;;;25.00;79.90;;;;;;5095986;28;20024;-62
2022/06/18 07:23:23;;;;;;;3.38;2.10;;;25.20;79.10;;;;;;5095722;28;20024;-62
2022/06/18 07:25:49;;;;;;;;;;;25.30;79.20;;;;;;5096122;28;20392;-62
2022/06/18 07:28:15;;;;;;;4.18;2.38;;;25.40;78.60;;;;;;5095770;28;19910;-63
2022/06/18 07:30:41;;;;;;;2.40;1.98;;;25.60;77.80;;;;;;5095741;28;20028;-62
2022/06/18 07:33:09;;;;;;;4.20;1.90;;;25.60;77.50;;;;;;5096205;28;20452;-62
2022/06/18 07:35:35;;;;;;;3.85;2.13;;;25.80;77.50;;;;;;5095618;28;20032;-62
2022/06/18 07:38:01;;;;;;;3.53;2.20;;;25.80;76.20;;;;;;5095421;28;20024;-62
2022/06/18 07:40:30;;;;;;;;;;;25.80;76.20;;;;;;5096175;28;20020;-62
2022/06/18 07:42:55;;;;;;;3.35;2.00;;;26.10;76.20;;;;;;5095440;28;19904;-63
2022/06/18 07:45:24;;;;;;;5.90;2.20;;;26.60;75.50;;;;;;5077367;28;20110;-63
2022/06/18 07:47:50;;;;;;;3.15;1.90;;;27.90;73.90;;;;;;5095202;28;20085;-63
2022/06/18 07:50:18;;;;;;;7.10;1.88;;;29.40;70.30;;;;;;5095451;28;20106;-62
2022/06/18 07:52:44;;;;;;;3.67;2.30;;;30.30;67.30;;;;;;5095117;28;20027;-63
2022/06/18 07:55:25;;;;;;;3.97;2.08;;;31.00;65.90;;;;;;5095577;28;20020;-63
2022/06/18 07:57:51;;;;;;;2.33;2.10;;;30.90;65.10;;;;;;5095209;28;20495;-62
2022/06/18 08:00:19;;;;;;;7.13;2.35;;;30.80;65.60;;;;;;5095031;28;20030;-64
2022/06/18 08:02:46;;;;;;;4.47;2.13;;;30.70;65.10;;;;;;5094992;28;20047;-64
2022/06/18 08:05:13;;;;;;;3.05;1.98;;;30.60;65.50;;;;;;5095106;28;20081;-63
2022/06/18 08:07:39;;;;;;;5.10;2.38;;;31.10;64.70;;;;;;5076580;28;20036;-62
2022/06/18 08:10:06;;;;;;;4.38;2.20;;;32.30;63.80;;;;;;5094838;28;20069;-63
2022/06/18 08:12:34;;;;;;;3.03;2.15;;;33.50;61.90;;;;;;5094899;28;20029;-63
2022/06/18 08:15:01;;;;;;;4.75;2.30;;;34.80;58.80;;;;;;5095267;28;20373;-63
2022/06/18 08:17:27;;;;;;;4.65;1.77;;;35.60;57.60;;;;;;5094802;28;20150;-64
2022/06/18 08:19:52;;;;;;;4.22;2.35;;;36.30;56.40;;;;;;5077577;28;20031;-63
2022/06/18 08:22:20;;;;;;;5.28;1.92;;;37.20;55.20;;;;;;5095582;28;20024;-63
2022/06/18 08:24:46;;;;;;;2.20;2.00;;;37.90;53.80;;;;;;5095558;28;20035;-61
2022/06/18 08:27:14;;;;;;;4.05;2.00;;;37.20;54.00;;;;;;5096403;28;20028;-63
2022/06/18 08:29:39;;;;;;;3.30;1.98;;;37.70;53.10;;;;;;5096728;28;20026;-64
2022/06/18 08:32:05;;;;;;;2.08;1.85;;;38.10;52.70;;;;;;5095967;28;20032;-63
2022/06/18 08:34:30;;;;;;;2.75;2.10;;;38.60;52.00;;;;;;5096789;28;20028;-62
2022/06/18 08:36:56;;;;;;;5.75;2.00;;;39.30;50.80;;;;;;5095757;28;20362;-61
2022/06/18 08:39:22;;;;;;;3.65;2.15;;;39.70;50.70;;;;;;5094607;28;20028;-61
2022/06/18 08:41:56;;;;;;;2.10;1.90;;;39.10;50.70;;;;;;5094362;28;20028;-62
2022/06/18 08:44:50;;;;;;;4.47;2.40;;;39.50;50.30;;;;;;5094464;28;20027;-63
2022/06/18 08:47:57;;;;;;;3.88;1.88;;;40.00;49.10;;;;;;5094524;28;20623;-62
2022/06/18 08:50:43;;;;;;;2.38;2.15;;;39.30;50.10;;;;;;5031920;28;20164;-64
2022/06/18 08:53:32;;;;;;;2.00;1.90;;;40.30;49.70;;;;;;5031684;28;20114;-63
2022/06/18 08:56:10;;;;;;;2.75;1.73;;;40.90;48.70;;;;;;5032016;28;20378;-64
2022/06/18 08:58:47;;;;;;;4.07;2.20;;;42.10;47.90;;;;;;5031890;28;20025;-63
2022/06/18 09:01:38;;;;;;;2.50;1.63;;;42.60;46.90;;;;;;5032214;28;20376;-64
2022/06/18 09:04:03;;;;;;;2.28;1.50;;;42.70;46.50;;;;;;5032235;28;20037;-63
2022/06/18 09:06:38;;;;;;;2.17;1.70;;;43.20;46.00;;;;;;5031895;28;20485;-64
2022/06/18 09:09:26;;;;;;;5.03;1.88;;;43.40;45.20;;;;;;5031866;28;20064;-63
2022/06/18 09:12:15;;;;;;;3.58;2.40;;;43.30;44.90;;;;;;5031376;28;20033;-63
2022/06/18 09:14:50;;;;;;;4.78;2.35;;;43.40;45.00;;;;;;5032027;28;20113;-63
2022/06/18 09:17:34;;;;;;;3.92;1.92;;;43.80;44.60;;;;;;5032326;28;20049;-63
2022/06/18 09:20:10;;;;;;;8.50;1.88;;;42.60;44.10;;;;;;5031639;28;20478;-63
2022/06/18 09:22:44;;;;;;;2.13;1.85;;;42.30;44.60;;;;;;5031719;28;20398;-62
2022/06/18 09:25:17;;;;;;;2.33;1.60;;;41.70;44.80;;;;;;5031829;28;20502;-63
2022/06/18 09:27:58;;;;;;;5.55;1.75;;;42.10;44.90;;;;;;5087121;28;20273;-63
2022/06/18 09:30:45;;;;;;;4.03;1.80;;;42.10;44.90;;;;;;5093136;28;20080;-63
2022/06/18 09:33:40;;;;;;;2.47;1.90;;;42.90;44.60;;;;;;5093290;28;20028;-63
2022/06/18 09:36:12;;;;;;;;;;;43.40;43.30;;;;;;5083059;28;20043;-63
2022/06/18 09:38:54;;;;;;;1.50;1.40;;;42.30;42.90;;;;;;5093783;28;20386;-63
2022/06/18 09:41:33;;;;;;;2.33;1.77;;;41.90;43.00;;;;;;5093771;28;20035;-64
2022/06/18 09:44:10;;;;;;;4.18;1.60;;;42.30;43.10;;;;;;5093387;28;20489;-62
2022/06/18 09:46:45;;;;;;;4.38;1.70;;;42.90;43.30;;;;;;5093351;28;20032;-62
2022/06/18 09:49:11;;;;;;;1.63;1.52;;;43.70;42.70;;;;;;5093265;28;20115;-63
2022/06/18 09:51:46;;;;;;;7.15;2.15;;;44.00;41.90;;;;;;5093110;28;20157;-64
2022/06/18 09:54:16;;;;;;;1.55;1.40;;;44.10;41.80;;;;;;5093272;28;20024;-64
2022/06/18 09:56:45;;;;;;;3.67;2.42;;;43.80;40.90;;;;;;5093338;28;20036;-64
2022/06/18 09:59:17;;;;;;;2.08;1.20;;;43.90;40.40;;;;;;5093449;28;20487;-62
2022/06/18 10:01:46;;;;;;;2.20;2.00;;;43.80;39.50;;;;;;5093068;28;20465;-63
2022/06/18 10:07:20;;;;;;;3.95;1.60;;;43.70;40.30;;;;;;5093140;28;20051;-63
2022/06/18 10:10:00;;;;;;;1.65;1.50;;;43.20;40.50;;;;;;5093295;28;20430;-64
2022/06/18 10:12:27;;;;;;;3.08;1.50;;;43.50;40.70;;;;;;5093305;28;20028;-63
2022/06/18 10:14:55;;;;;;;3.22;1.90;;;43.70;40.10;;;;;;5092980;28;20031;-63
2022/06/18 10:17:39;;;;;;;3.75;1.70;;;44.40;40.20;;;;;;5093485;28;20028;-63
2022/06/18 10:20:29;;;;;;;2.72;1.80;;;44.40;40.00;;;;;;5093217;28;20022;-64
2022/06/18 10:23:03;;;;;;;3.45;2.20;;;44.40;40.50;;;;;;5093587;28;20470;-63
2022/06/18 10:25:43;;;;;;;2.97;1.80;;;44.80;39.90;;;;;;5093096;28;20074;-63
2022/06/18 10:28:45;;;;;;;3.83;1.80;;;44.80;39.50;;;;;;5092911;28;20101;-63
2022/06/18 10:31:45;;;;;;;1.88;1.67;;;44.50;39.70;;;;;;5089582;28;20051;-63
2022/06/18 10:34:34;;;;;;;3.25;1.90;;;45.10;39.50;;;;;;5093097;28;20047;-63
2022/06/18 10:37:14;;;;;;;2.38;1.70;;;44.60;39.60;;;;;;5061662;28;20481;-63
2022/06/18 10:40:02;;;;;;;4.85;2.00;;;44.20;39.60;;;;;;5092754;28;20081;-64
2022/06/18 10:42:45;;;;;;;3.22;1.60;;;43.80;40.00;;;;;;5096525;28;20024;-63
2022/06/18 10:45:28;;;;;;;3.45;1.70;;;44.10;39.80;;;;;;5096907;28;20039;-64
2022/06/18 10:47:54;;;;;;;2.10;1.42;;;43.70;38.30;;;;;;5096887;28;20028;-63
2022/06/18 10:50:21;;;;;;;2.45;1.48;;;41.80;39.20;;;;;;5096784;28;20043;-63
2022/06/18 10:52:59;;;;;;;2.60;1.25;;;41.30;39.60;;;;;;5096900;28;20106;-64
2022/06/18 10:55:25;;;;;;;2.13;1.30;;;41.90;39.60;;;;;;5096973;28;20012;-62
2022/06/18 10:57:51;;;;;;;3.55;1.40;;;42.30;39.70;;;;;;5096774;28;20074;-63
2022/06/18 11:00:23;;;;;;;2.42;1.75;;;42.20;40.20;;;;;;5096582;28;20035;-63
2022/06/18 11:02:50;;;;;;;2.35;1.30;;;42.30;40.40;;;;;;5096594;28;20068;-63
2022/06/18 11:05:15;;;;;;;3.30;1.30;;;42.30;40.40;;;;;;5096746;28;20028;-64
2022/06/18 11:07:47;;;;;;;1.80;1.40;;;41.90;40.40;;;;;;5096354;28;20024;-63
2022/06/18 11:10:38;;;;;;;3.70;1.40;;;41.20;41.00;;;;;;5097114;28;20047;-62
2022/06/18 11:13:17;;;;;;;3.13;1.33;;;40.80;41.80;;;;;;5078234;28;20016;-62
2022/06/18 11:15:42;;;;;;;2.45;1.50;;;40.10;42.10;;;;;;5097128;28;20084;-62
2022/06/18 11:18:19;;;;;;;1.73;1.30;;;39.40;42.90;;;;;;5096573;28;20437;-64
2022/06/18 11:20:58;;;;;;;3.83;1.42;;;38.80;43.30;;;;;;5096482;28;20024;-64
2022/06/18 11:23:24;;;;;;;4.53;1.70;;;38.00;43.90;;;;;;5096255;28;20437;-63
2022/06/18 11:25:54;;;;;;;2.30;1.23;;;37.50;44.60;;;;;;5096453;28;20024;-63
2022/06/18 11:28:24;;;;;;;3.28;1.60;;;37.10;44.00;;;;;;5096460;28;20034;-63
2022/06/18 11:30:51;;;;;;;3.90;1.60;;;36.70;44.30;;;;;;5096418;28;20065;-64
2022/06/18 11:33:34;;;;;;;3.10;1.52;;;36.60;44.90;;;;;;5095906;28;20145;-63
2022/06/18 11:36:11;;;;;;;3.35;1.30;;;36.20;44.70;;;;;;5096110;28;20031;-61
2022/06/18 11:38:38;;;;;;;6.00;1.80;;;35.80;45.40;;;;;;5096270;28;20028;-63
2022/06/18 11:41:18;;;;;;;4.18;1.50;;;35.50;45.60;;;;;;5097081;28;20020;-62
2022/06/18 11:43:53;;;;;;;3.40;1.60;;;35.40;45.90;;;;;;5078114;28;20020;-64
2022/06/18 11:46:25;;;;;;;3.08;1.88;;;35.40;46.00;;;;;;5096002;28;20039;-63
2022/06/18 11:49:04;;;;;;;1.98;1.60;;;35.30;45.80;;;;;;5095523;28;20016;-64
2022/06/18 11:51:44;;;;;;;1.92;1.20;;;34.70;46.10;;;;;;5094888;28;20027;-64
2022/06/18 11:54:22;;;;;;;4.25;1.90;;;34.60;46.70;;;;;;5095507;28;20465;-65
2022/06/18 11:56:47;;;;;;;3.38;1.48;;;34.50;46.60;;;;;;5095658;28;20031;-64
2022/06/18 11:59:34;;;;;;;3.50;1.70;;;34.60;46.80;;;;;;5095332;28;20028;-65
2022/06/18 12:02:19;;;;;;;4.10;1.85;;;34.90;47.20;;;;;;5095115;28;20493;-65
2022/06/18 12:05:01;;;;;;;4.90;1.80;;;35.00;46.60;;;;;;5095602;28;20500;-64
2022/06/18 12:07:36;;;;;;;5.68;1.92;;;35.00;46.70;;;;;;5095456;28;20084;-63
2022/06/18 12:10:05;;;;;;;2.63;1.80;;;34.80;46.70;;;;;;5095577;28;20024;-62
2022/06/18 12:12:44;;;;;;;4.90;1.75;;;34.70;46.80;;;;;;5095395;28;20036;-63
2022/06/18 12:15:33;;;;;;;3.65;1.63;;;34.60;47.30;;;;;;5095689;28;20043;-62
2022/06/18 12:18:01;;;;;;;2.40;1.25;;;34.60;47.00;;;;;;5095592;28;20035;-62
2022/06/18 12:20:41;;;;;;;4.30;1.52;;;34.70;47.30;;;;;;5095372;28;20205;-61
2022/06/18 12:23:37;;;;;;;3.70;1.45;;;34.70;47.40;;;;;;5095450;28;20032;-62
2022/06/18 12:26:17;;;;;;;4.22;1.40;;;34.90;47.20;;;;;;5095498;28;20028;-63
2022/06/18 12:28:52;;;;;;;3.78;1.60;;;34.90;47.10;;;;;;5095390;28;20032;-64
2022/06/18 12:31:32;;;;;;;2.53;1.55;;;35.00;47.00;;;;;;5095383;28;20027;-63
2022/06/18 12:34:36;;;;;;;4.45;1.42;;;34.90;47.40;;;;;;5095375;28;20396;-61
2022/06/18 12:37:20;;;;;;;3.58;2.00;;;34.70;47.80;;;;;;5063194;28;20047;-63
2022/06/18 12:40:14;;;;;;;5.40;1.83;;;34.70;48.10;;;;;;5076348;28;20027;-62
2022/06/18 12:42:50;;;;;;;4.50;1.77;;;34.70;47.90;;;;;;5095151;28;20020;-63
2022/06/18 12:45:16;;;;;;;;;;;34.70;47.90;;;;;;5095342;28;20380;-60
2022/06/18 12:48:09;;;;;;;6.32;1.90;;;34.70;47.70;;;;;;5094285;28;19908;-63
2022/06/18 12:50:52;;;;;;;4.38;1.60;;;34.50;48.40;;;;;;5094754;28;20596;-61
2022/06/18 12:53:36;;;;;;;4.15;1.77;;;34.50;48.60;;;;;;5094611;28;20032;-61
2022/06/18 12:56:42;;;;;;;3.80;1.80;;;34.60;48.70;;;;;;5094636;28;20030;-64
2022/06/18 12:59:25;;;;;;;6.70;2.07;;;34.60;50.20;;;;;;5094682;28;20099;-61
2022/06/18 13:02:12;;;;;;;6.88;1.70;;;34.60;48.90;;;;;;5094642;28;20264;-62
2022/06/18 13:04:59;;;;;;;4.10;1.77;;;34.60;48.90;;;;;;5093782;28;20135;-62
2022/06/18 13:07:52;;;;;;;9.23;2.22;;;34.60;49.00;;;;;;5094234;28;20070;-62
2022/06/18 13:10:41;;;;;;;4.60;2.42;;;34.60;48.90;;;;;;5094317;28;20150;-63
2022/06/18 13:13:27;;;;;;;4.57;1.70;;;34.60;48.70;;;;;;5065206;28;20085;-61
2022/06/18 13:16:20;;;;;;;8.27;1.98;;;34.50;49.20;;;;;;5095903;28;20069;-61
2022/06/18 13:19:03;;;;;;;6.22;1.80;;;34.50;49.40;;;;;;5094216;28;20021;-61
2022/06/18 13:21:28;;;;;;;2.88;1.67;;;34.60;49.40;;;;;;5094065;28;20023;-60
2022/06/18 13:30:15;;;;;;;3.40;1.70;;;34.60;49.70;;;;;;5094213;28;20503;-58
2022/06/18 13:33:15;;;;;;;3.83;1.65;;;34.50;49.60;;;;;;5094069;28;20028;-64
2022/06/18 13:35:53;;;;;;;6.18;2.28;;;34.70;49.60;;;;;;5093400;28;20047;-63